sensor_id;sensor_type;location;lat;lon;timestamp;P1;durP1;ratioP1;P2;durP2;ratioP2
66478;SDS011;53294;47.912;13.526;2022-09-09T00:01:23;2.58;;;1.10;;
66478;SDS011;53294;47.912;13.526;2022-09-09T00:04:05;2.15;;;0.98;;
66478;SDS011;53294;47.912;13.526;2022-09-09T00:06:45;0.70;;;0.70;;
66478;SDS011;53294;47.912;13.526;2022-09-09T00:09:27;0.90;;;0.80;;
66478;SDS011;53294;47.912;13.526;2022-09-09T00:14:41;1.45;;;0.82;;
66478;SDS011;53294;47.912;13.526;2022-09-09T00:17:19;0.95;;;0.73;;
66478;SDS011;53294;47.912;13.526;2022-09-09T00:22:47;1.52;;;0.88;;
66478;SDS011;53294;47.912;13.526;2022-09-09T00:25:37;0.95;;;0.73;;
66478;SDS011;53294;47.912;13.526;2022-09-09T00:28:19;1.98;;;1.13;;
66478;SDS011;53294;47.912;13.526;2022-09-09T00:30:48;1.55;;;0.70;;
66478;SDS011;53294;47.912;13.526;2022-09-09T00:33:19;1.27;;;0.93;;
66478;SDS011;53294;47.912;13.526;2022-09-09T00:35:53;1.80;;;1.10;;
66478;SDS011;53294;47.912;13.526;2022-09-09T00:41:11;1.38;;;0.90;;
66478;SDS011;53294;47.912;13.526;2022-09-09T00:44:30;1.40;;;0.80;;
66478;SDS011;53294;47.912;13.526;2022-09-09T00:58:07;1.40;;;0.88;;
66478;SDS011;53294;47.912;13.526;2022-09-09T01:00:40;1.38;;;1.00;;
66478;SDS011;53294;47.912;13.526;2022-09-09T01:10:58;1.50;;;0.95;;
66478;SDS011;53294;47.912;13.526;2022-09-09T01:13:27;1.45;;;0.95;;
66478;SDS011;53294;47.912;13.526;2022-09-09T01:16:00;0.75;;;0.57;;
66478;SDS011;53294;47.912;13.526;2022-09-09T01:18:51;0.95;;;0.63;;
66478;SDS011;53294;47.912;13.526;2022-09-09T01:24:03;2.90;;;1.20;;
66478;SDS011;53294;47.912;13.526;2022-09-09T01:26:46;1.38;;;0.90;;
66478;SDS011;53294;47.912;13.526;2022-09-09T01:29:17;2.70;;;1.08;;
66478;SDS011;53294;47.912;13.526;2022-09-09T01:34:28;2.17;;;0.82;;
66478;SDS011;53294;47.912;13.526;2022-09-09T01:37:03;2.42;;;1.42;;
66478;SDS011;53294;47.912;13.526;2022-09-09T01:39:33;1.45;;;0.93;;
66478;SDS011;53294;47.912;13.526;2022-09-09T01:42:02;4.65;;;0.90;;
66478;SDS011;53294;47.912;13.526;2022-09-09T01:44:32;1.17;;;0.63;;
66478;SDS011;53294;47.912;13.526;2022-09-09T01:47:00;1.30;;;1.02;;
66478;SDS011;53294;47.912;13.526;2022-09-09T01:49:27;2.95;;;0.93;;
66478;SDS011;53294;47.912;13.526;2022-09-09T01:51:54;1.27;;;0.90;;
66478;SDS011;53294;47.912;13.526;2022-09-09T01:54:24;3.40;;;1.00;;
66478;SDS011;53294;47.912;13.526;2022-09-09T02:00:04;0.70;;;0.70;;
66478;SDS011;53294;47.912;13.526;2022-09-09T02:08:05;2.15;;;1.00;;
66478;SDS011;53294;47.912;13.526;2022-09-09T02:10:50;2.42;;;0.80;;
66478;SDS011;53294;47.912;13.526;2022-09-09T02:13:20;2.15;;;1.00;;
66478;SDS011;53294;47.912;13.526;2022-09-09T02:15:57;2.17;;;1.10;;
66478;SDS011;53294;47.912;13.526;2022-09-09T02:18:32;1.60;;;0.95;;
66478;SDS011;53294;47.912;13.526;2022-09-09T02:21:04;1.50;;;1.00;;
66478;SDS011;53294;47.912;13.526;2022-09-09T02:23:33;2.25;;;1.20;;
66478;SDS011;53294;47.912;13.526;2022-09-09T02:26:02;3.58;;;0.95;;
66478;SDS011;53294;47.912;13.526;2022-09-09T02:28:31;0.93;;;0.80;;
66478;SDS011;53294;47.912;13.526;2022-09-09T02:31:01;2.30;;;1.10;;
66478;SDS011;53294;47.912;13.526;2022-09-09T02:33:29;1.33;;;1.00;;
66478;SDS011;53294;47.912;13.526;2022-09-09T02:36:00;1.60;;;0.95;;
66478;SDS011;53294;47.912;13.526;2022-09-09T02:38:31;1.75;;;1.02;;
66478;SDS011;53294;47.912;13.526;2022-09-09T02:41:01;1.90;;;0.90;;
66478;SDS011;53294;47.912;13.526;2022-09-09T02:43:34;1.55;;;0.93;;
66478;SDS011;53294;47.912;13.526;2022-09-09T02:48:51;1.40;;;1.10;;
66478;SDS011;53294;47.912;13.526;2022-09-09T02:54:16;1.27;;;0.90;;
66478;SDS011;53294;47.912;13.526;2022-09-09T02:56:51;1.63;;;0.80;;
66478;SDS011;53294;47.912;13.526;2022-09-09T02:59:22;1.63;;;0.85;;
66478;SDS011;53294;47.912;13.526;2022-09-09T03:01:52;2.10;;;0.90;;
66478;SDS011;53294;47.912;13.526;2022-09-09T03:04:19;2.35;;;0.85;;
66478;SDS011;53294;47.912;13.526;2022-09-09T03:06:46;1.67;;;1.00;;
66478;SDS011;53294;47.912;13.526;2022-09-09T03:09:13;1.35;;;1.10;;
66478;SDS011;53294;47.912;13.526;2022-09-09T03:11:40;2.17;;;0.85;;
66478;SDS011;53294;47.912;13.526;2022-09-09T03:14:06;1.17;;;0.90;;
66478;SDS011;53294;47.912;13.526;2022-09-09T03:16:34;1.60;;;1.10;;
66478;SDS011;53294;47.912;13.526;2022-09-09T03:19:01;1.60;;;1.05;;
66478;SDS011;53294;47.912;13.526;2022-09-09T03:21:28;2.40;;;0.85;;
66478;SDS011;53294;47.912;13.526;2022-09-09T03:23:54;1.55;;;1.00;;
66478;SDS011;53294;47.912;13.526;2022-09-09T03:26:21;0.93;;;0.82;;
66478;SDS011;53294;47.912;13.526;2022-09-09T03:28:49;2.00;;;0.75;;
66478;SDS011;53294;47.912;13.526;2022-09-09T03:31:18;1.27;;;0.85;;
66478;SDS011;53294;47.912;13.526;2022-09-09T03:33:46;2.08;;;0.90;;
66478;SDS011;53294;47.912;13.526;2022-09-09T03:36:12;1.13;;;0.88;;
66478;SDS011;53294;47.912;13.526;2022-09-09T03:38:40;3.35;;;1.10;;
66478;SDS011;53294;47.912;13.526;2022-09-09T03:41:07;1.45;;;0.85;;
66478;SDS011;53294;47.912;13.526;2022-09-09T03:43:34;1.17;;;0.85;;
66478;SDS011;53294;47.912;13.526;2022-09-09T03:46:01;1.50;;;0.88;;
66478;SDS011;53294;47.912;13.526;2022-09-09T03:48:27;2.67;;;1.30;;
66478;SDS011;53294;47.912;13.526;2022-09-09T03:50:55;1.63;;;0.95;;
66478;SDS011;53294;47.912;13.526;2022-09-09T03:53:24;2.58;;;1.10;;
66478;SDS011;53294;47.912;13.526;2022-09-09T03:55:52;1.02;;;0.90;;
66478;SDS011;53294;47.912;13.526;2022-09-09T03:58:22;2.83;;;0.80;;
66478;SDS011;53294;47.912;13.526;2022-09-09T04:00:57;4.63;;;1.23;;
66478;SDS011;53294;47.912;13.526;2022-09-09T04:03:25;1.00;;;0.77;;
66478;SDS011;53294;47.912;13.526;2022-09-09T04:05:54;1.30;;;0.82;;
66478;SDS011;53294;47.912;13.526;2022-09-09T04:08:22;2.55;;;0.90;;
66478;SDS011;53294;47.912;13.526;2022-09-09T04:10:51;1.17;;;1.00;;
66478;SDS011;53294;47.912;13.526;2022-09-09T04:13:19;2.38;;;1.10;;
66478;SDS011;53294;47.912;13.526;2022-09-09T04:15:53;1.10;;;0.88;;
66478;SDS011;53294;47.912;13.526;2022-09-09T04:18:21;1.25;;;0.88;;
66478;SDS011;53294;47.912;13.526;2022-09-09T04:20:49;1.45;;;0.90;;
66478;SDS011;53294;47.912;13.526;2022-09-09T04:23:16;5.10;;;1.00;;
66478;SDS011;53294;47.912;13.526;2022-09-09T04:25:47;1.73;;;0.90;;
66478;SDS011;53294;47.912;13.526;2022-09-09T04:28:15;0.73;;;0.73;;
66478;SDS011;53294;47.912;13.526;2022-09-09T04:30:43;1.52;;;1.00;;
66478;SDS011;53294;47.912;13.526;2022-09-09T04:33:10;1.00;;;0.80;;
66478;SDS011;53294;47.912;13.526;2022-09-09T04:35:38;1.13;;;0.85;;
66478;SDS011;53294;47.912;13.526;2022-09-09T04:38:09;1.65;;;1.02;;
66478;SDS011;53294;47.912;13.526;2022-09-09T04:40:36;1.73;;;1.10;;
66478;SDS011;53294;47.912;13.526;2022-09-09T04:43:03;1.60;;;1.10;;
66478;SDS011;53294;47.912;13.526;2022-09-09T04:45:38;1.65;;;0.93;;
66478;SDS011;53294;47.912;13.526;2022-09-09T04:48:07;1.98;;;0.80;;
66478;SDS011;53294;47.912;13.526;2022-09-09T04:50:35;1.40;;;1.00;;
66478;SDS011;53294;47.912;13.526;2022-09-09T04:53:02;2.17;;;1.13;;
66478;SDS011;53294;47.912;13.526;2022-09-09T04:55:31;1.30;;;1.00;;
66478;SDS011;53294;47.912;13.526;2022-09-09T04:58:02;3.00;;;1.23;;
66478;SDS011;53294;47.912;13.526;2022-09-09T05:00:30;2.88;;;1.25;;
66478;SDS011;53294;47.912;13.526;2022-09-09T05:02:57;2.25;;;1.20;;
66478;SDS011;53294;47.912;13.526;2022-09-09T05:05:24;2.20;;;1.20;;
66478;SDS011;53294;47.912;13.526;2022-09-09T05:07:51;1.02;;;0.95;;
66478;SDS011;53294;47.912;13.526;2022-09-09T05:10:18;1.92;;;0.88;;
66478;SDS011;53294;47.912;13.526;2022-09-09T05:12:51;1.27;;;0.70;;
66478;SDS011;53294;47.912;13.526;2022-09-09T05:15:19;3.05;;;0.80;;
66478;SDS011;53294;47.912;13.526;2022-09-09T05:17:47;2.45;;;1.00;;
66478;SDS011;53294;47.912;13.526;2022-09-09T05:20:13;1.40;;;0.80;;
66478;SDS011;53294;47.912;13.526;2022-09-09T05:22:42;1.42;;;0.90;;
66478;SDS011;53294;47.912;13.526;2022-09-09T05:25:10;3.13;;;1.30;;
66478;SDS011;53294;47.912;13.526;2022-09-09T05:27:36;0.75;;;0.75;;
66478;SDS011;53294;47.912;13.526;2022-09-09T05:30:03;1.98;;;0.98;;
66478;SDS011;53294;47.912;13.526;2022-09-09T05:32:30;1.55;;;0.80;;
66478;SDS011;53294;47.912;13.526;2022-09-09T05:35:00;1.65;;;0.90;;
66478;SDS011;53294;47.912;13.526;2022-09-09T05:37:27;1.27;;;0.88;;
66478;SDS011;53294;47.912;13.526;2022-09-09T05:39:55;2.28;;;1.13;;
66478;SDS011;53294;47.912;13.526;2022-09-09T05:42:22;2.35;;;1.20;;
66478;SDS011;53294;47.912;13.526;2022-09-09T05:44:49;1.77;;;1.20;;
66478;SDS011;53294;47.912;13.526;2022-09-09T05:47:17;1.27;;;1.02;;
66478;SDS011;53294;47.912;13.526;2022-09-09T05:49:43;2.35;;;0.93;;
66478;SDS011;53294;47.912;13.526;2022-09-09T05:52:10;1.38;;;0.90;;
66478;SDS011;53294;47.912;13.526;2022-09-09T05:54:37;2.25;;;0.90;;
66478;SDS011;53294;47.912;13.526;2022-09-09T05:57:04;2.53;;;1.30;;
66478;SDS011;53294;47.912;13.526;2022-09-09T05:59:32;1.70;;;0.90;;
66478;SDS011;53294;47.912;13.526;2022-09-09T06:01:58;1.40;;;0.95;;
66478;SDS011;53294;47.912;13.526;2022-09-09T06:04:25;2.28;;;0.70;;
66478;SDS011;53294;47.912;13.526;2022-09-09T06:06:52;1.02;;;0.93;;
66478;SDS011;53294;47.912;13.526;2022-09-09T06:09:19;1.20;;;0.93;;
66478;SDS011;53294;47.912;13.526;2022-09-09T06:11:45;2.58;;;0.80;;
66478;SDS011;53294;47.912;13.526;2022-09-09T06:14:12;1.40;;;0.90;;
66478;SDS011;53294;47.912;13.526;2022-09-09T06:16:39;1.55;;;1.00;;
66478;SDS011;53294;47.912;13.526;2022-09-09T06:19:08;2.72;;;0.93;;
66478;SDS011;53294;47.912;13.526;2022-09-09T06:21:35;3.33;;;1.08;;
66478;SDS011;53294;47.912;13.526;2022-09-09T06:24:03;1.85;;;1.20;;
66478;SDS011;53294;47.912;13.526;2022-09-09T06:26:35;1.25;;;1.00;;
66478;SDS011;53294;47.912;13.526;2022-09-09T06:29:07;3.80;;;2.80;;
66478;SDS011;53294;47.912;13.526;2022-09-09T06:31:35;2.13;;;1.55;;
66478;SDS011;53294;47.912;13.526;2022-09-09T06:34:06;2.53;;;1.40;;
66478;SDS011;53294;47.912;13.526;2022-09-09T06:36:34;2.30;;;1.15;;
66478;SDS011;53294;47.912;13.526;2022-09-09T06:39:03;1.77;;;1.08;;
66478;SDS011;53294;47.912;13.526;2022-09-09T06:41:34;1.38;;;0.90;;
66478;SDS011;53294;47.912;13.526;2022-09-09T06:44:01;2.22;;;1.13;;
66478;SDS011;53294;47.912;13.526;2022-09-09T06:46:29;1.38;;;0.98;;
66478;SDS011;53294;47.912;13.526;2022-09-09T06:48:59;2.60;;;1.00;;
66478;SDS011;53294;47.912;13.526;2022-09-09T06:51:27;2.95;;;1.42;;
66478;SDS011;53294;47.912;13.526;2022-09-09T06:53:57;2.15;;;0.98;;
66478;SDS011;53294;47.912;13.526;2022-09-09T06:56:29;2.05;;;1.10;;
66478;SDS011;53294;47.912;13.526;2022-09-09T06:59:02;1.13;;;0.93;;
66478;SDS011;53294;47.912;13.526;2022-09-09T07:01:31;1.70;;;1.00;;
66478;SDS011;53294;47.912;13.526;2022-09-09T07:03:59;2.42;;;1.30;;
66478;SDS011;53294;47.912;13.526;2022-09-09T07:06:28;1.38;;;1.00;;
66478;SDS011;53294;47.912;13.526;2022-09-09T07:08:57;1.48;;;0.90;;
66478;SDS011;53294;47.912;13.526;2022-09-09T07:11:30;1.80;;;0.90;;
66478;SDS011;53294;47.912;13.526;2022-09-09T07:13:58;2.03;;;1.00;;
66478;SDS011;53294;47.912;13.526;2022-09-09T07:16:26;1.50;;;1.13;;
66478;SDS011;53294;47.912;13.526;2022-09-09T07:18:54;2.92;;;1.20;;
66478;SDS011;53294;47.912;13.526;2022-09-09T07:21:27;2.25;;;1.00;;
66478;SDS011;53294;47.912;13.526;2022-09-09T07:23:55;2.05;;;1.15;;
66478;SDS011;53294;47.912;13.526;2022-09-09T07:26:24;1.88;;;1.00;;
66478;SDS011;53294;47.912;13.526;2022-09-09T07:28:52;3.08;;;1.15;;
66478;SDS011;53294;47.912;13.526;2022-09-09T07:31:29;1.80;;;1.33;;
66478;SDS011;53294;47.912;13.526;2022-09-09T07:33:58;3.92;;;1.10;;
66478;SDS011;53294;47.912;13.526;2022-09-09T07:36:35;1.85;;;1.17;;
66478;SDS011;53294;47.912;13.526;2022-09-09T07:39:05;1.67;;;1.10;;
66478;SDS011;53294;47.912;13.526;2022-09-09T07:41:34;3.75;;;1.38;;
66478;SDS011;53294;47.912;13.526;2022-09-09T07:44:07;2.33;;;1.40;;
66478;SDS011;53294;47.912;13.526;2022-09-09T07:49:06;4.32;;;1.52;;
66478;SDS011;53294;47.912;13.526;2022-09-09T07:51:34;2.40;;;1.30;;
66478;SDS011;53294;47.912;13.526;2022-09-09T07:54:04;3.22;;;1.35;;
66478;SDS011;53294;47.912;13.526;2022-09-09T07:56:32;4.03;;;1.50;;
66478;SDS011;53294;47.912;13.526;2022-09-09T07:58:59;2.17;;;1.40;;
66478;SDS011;53294;47.912;13.526;2022-09-09T08:01:31;2.83;;;1.30;;
66478;SDS011;53294;47.912;13.526;2022-09-09T08:04:02;2.58;;;1.30;;
66478;SDS011;53294;47.912;13.526;2022-09-09T08:06:39;2.53;;;1.30;;
66478;SDS011;53294;47.912;13.526;2022-09-09T08:09:08;2.75;;;1.30;;
66478;SDS011;53294;47.912;13.526;2022-09-09T08:11:35;4.07;;;1.30;;
66478;SDS011;53294;47.912;13.526;2022-09-09T08:14:05;1.65;;;1.10;;
66478;SDS011;53294;47.912;13.526;2022-09-09T08:16:34;2.45;;;1.40;;
66478;SDS011;53294;47.912;13.526;2022-09-09T08:19:03;2.40;;;1.20;;
66478;SDS011;53294;47.912;13.526;2022-09-09T08:21:33;1.70;;;1.20;;
66478;SDS011;53294;47.912;13.526;2022-09-09T08:24:03;2.70;;;1.20;;
66478;SDS011;53294;47.912;13.526;2022-09-09T08:26:32;1.40;;;1.00;;
66478;SDS011;53294;47.912;13.526;2022-09-09T08:29:02;3.30;;;1.02;;
66478;SDS011;53294;47.912;13.526;2022-09-09T08:31:49;1.73;;;0.98;;
66478;SDS011;53294;47.912;13.526;2022-09-09T08:34:21;1.73;;;1.10;;
66478;SDS011;53294;47.912;13.526;2022-09-09T08:36:48;1.98;;;1.13;;
66478;SDS011;53294;47.912;13.526;2022-09-09T08:39:17;1.15;;;1.00;;
66478;SDS011;53294;47.912;13.526;2022-09-09T08:47:34;2.83;;;1.23;;
66478;SDS011;53294;47.912;13.526;2022-09-09T08:50:05;2.03;;;1.20;;
66478;SDS011;53294;47.912;13.526;2022-09-09T08:53:22;5.43;;;1.35;;
66478;SDS011;53294;47.912;13.526;2022-09-09T08:55:54;2.63;;;1.25;;
66478;SDS011;53294;47.912;13.526;2022-09-09T08:58:31;4.10;;;1.45;;
66478;SDS011;53294;47.912;13.526;2022-09-09T09:03:51;2.38;;;1.30;;
66478;SDS011;53294;47.912;13.526;2022-09-09T09:12:06;1.90;;;1.10;;
66478;SDS011;53294;47.912;13.526;2022-09-09T09:14:42;3.17;;;1.00;;
66478;SDS011;53294;47.912;13.526;2022-09-09T09:17:13;3.00;;;0.98;;
66478;SDS011;53294;47.912;13.526;2022-09-09T09:19:43;2.50;;;1.40;;
66478;SDS011;53294;47.912;13.526;2022-09-09T09:22:20;2.75;;;1.35;;
66478;SDS011;53294;47.912;13.526;2022-09-09T09:24:55;2.45;;;1.17;;
66478;SDS011;53294;47.912;13.526;2022-09-09T09:27:30;1.88;;;0.95;;
66478;SDS011;53294;47.912;13.526;2022-09-09T09:30:11;8.40;;;4.22;;
66478;SDS011;53294;47.912;13.526;2022-09-09T09:32:56;11.13;;;5.40;;
66478;SDS011;53294;47.912;13.526;2022-09-09T09:35:27;4.27;;;2.30;;
66478;SDS011;53294;47.912;13.526;2022-09-09T09:37:54;2.85;;;1.60;;
66478;SDS011;53294;47.912;13.526;2022-09-09T09:41:14;2.45;;;1.27;;
66478;SDS011;53294;47.912;13.526;2022-09-09T09:43:35;5.90;;;1.80;;
66478;SDS011;53294;47.912;13.526;2022-09-09T09:46:03;4.38;;;1.30;;
66478;SDS011;53294;47.912;13.526;2022-09-09T09:48:43;2.05;;;1.20;;
66478;SDS011;53294;47.912;13.526;2022-09-09T09:51:10;1.40;;;1.00;;
66478;SDS011;53294;47.912;13.526;2022-09-09T09:53:42;2.38;;;0.90;;
66478;SDS011;53294;47.912;13.526;2022-09-09T09:56:12;3.08;;;1.50;;
66478;SDS011;53294;47.912;13.526;2022-09-09T10:01:46;1.17;;;1.00;;
66478;SDS011;53294;47.912;13.526;2022-09-09T10:04:18;0.97;;;0.87;;
66478;SDS011;53294;47.912;13.526;2022-09-09T10:06:50;2.08;;;0.90;;
66478;SDS011;53294;47.912;13.526;2022-09-09T10:09:23;1.42;;;0.95;;
66478;SDS011;53294;47.912;13.526;2022-09-09T10:20:13;1.05;;;0.90;;
66478;SDS011;53294;47.912;13.526;2022-09-09T10:22:51;3.30;;;1.10;;
66478;SDS011;53294;47.912;13.526;2022-09-09T10:25:31;3.00;;;1.13;;
66478;SDS011;53294;47.912;13.526;2022-09-09T10:31:02;1.60;;;1.10;;
66478;SDS011;53294;47.912;13.526;2022-09-09T10:36:32;1.73;;;0.93;;
66478;SDS011;53294;47.912;13.526;2022-09-09T10:39:01;2.60;;;1.25;;
66478;SDS011;53294;47.912;13.526;2022-09-09T10:45:00;1.42;;;0.90;;
66478;SDS011;53294;47.912;13.526;2022-09-09T10:50:42;1.85;;;1.15;;
66478;SDS011;53294;47.912;13.526;2022-09-09T10:53:37;2.20;;;1.13;;
66478;SDS011;53294;47.912;13.526;2022-09-09T10:56:23;1.55;;;1.05;;
66478;SDS011;53294;47.912;13.526;2022-09-09T10:58:52;1.15;;;0.98;;
66478;SDS011;53294;47.912;13.526;2022-09-09T11:01:26;1.30;;;0.98;;
66478;SDS011;53294;47.912;13.526;2022-09-09T11:04:32;3.20;;;1.35;;
66478;SDS011;53294;47.912;13.526;2022-09-09T11:07:18;2.60;;;1.35;;
66478;SDS011;53294;47.912;13.526;2022-09-09T11:09:54;1.17;;;0.70;;
66478;SDS011;53294;47.912;13.526;2022-09-09T11:12:27;4.85;;;1.45;;
66478;SDS011;53294;47.912;13.526;2022-09-09T11:15:07;3.50;;;1.08;;
66478;SDS011;53294;47.912;13.526;2022-09-09T11:17:46;1.77;;;0.98;;
66478;SDS011;53294;47.912;13.526;2022-09-09T11:20:17;0.98;;;0.90;;
66478;SDS011;53294;47.912;13.526;2022-09-09T11:22:51;2.72;;;1.30;;
66478;SDS011;53294;47.912;13.526;2022-09-09T11:25:34;2.33;;;0.90;;
66478;SDS011;53294;47.912;13.526;2022-09-09T11:30:55;1.55;;;0.90;;
66478;SDS011;53294;47.912;13.526;2022-09-09T11:42:21;1.52;;;1.00;;
66478;SDS011;53294;47.912;13.526;2022-09-09T11:44:50;2.25;;;1.00;;
66478;SDS011;53294;47.912;13.526;2022-09-09T11:47:29;1.45;;;0.77;;
66478;SDS011;53294;47.912;13.526;2022-09-09T11:50:07;1.20;;;0.95;;
66478;SDS011;53294;47.912;13.526;2022-09-09T11:52:36;2.10;;;1.10;;
66478;SDS011;53294;47.912;13.526;2022-09-09T11:58:00;2.50;;;1.30;;
66478;SDS011;53294;47.912;13.526;2022-09-09T12:00:28;1.77;;;0.98;;
66478;SDS011;53294;47.912;13.526;2022-09-09T12:02:57;2.15;;;1.17;;
66478;SDS011;53294;47.912;13.526;2022-09-09T12:05:24;1.38;;;1.00;;
66478;SDS011;53294;47.912;13.526;2022-09-09T12:08:09;2.83;;;1.17;;
66478;SDS011;53294;47.912;13.526;2022-09-09T12:10:52;1.45;;;0.90;;
66478;SDS011;53294;47.912;13.526;2022-09-09T12:13:23;1.55;;;1.08;;
66478;SDS011;53294;47.912;13.526;2022-09-09T12:15:55;2.25;;;0.93;;
66478;SDS011;53294;47.912;13.526;2022-09-09T12:18:24;0.73;;;0.73;;
66478;SDS011;53294;47.912;13.526;2022-09-09T12:23:39;4.25;;;1.55;;
66478;SDS011;53294;47.912;13.526;2022-09-09T12:26:26;3.25;;;1.73;;
66478;SDS011;53294;47.912;13.526;2022-09-09T12:31:44;2.60;;;1.50;;
66478;SDS011;53294;47.912;13.526;2022-09-09T12:37:15;2.65;;;1.80;;
66478;SDS011;53294;47.912;13.526;2022-09-09T12:39:47;1.58;;;1.30;;
66478;SDS011;53294;47.912;13.526;2022-09-09T12:42:21;2.45;;;1.20;;
66478;SDS011;53294;47.912;13.526;2022-09-09T12:44:52;2.65;;;1.50;;
66478;SDS011;53294;47.912;13.526;2022-09-09T12:47:33;2.20;;;1.52;;
66478;SDS011;53294;47.912;13.526;2022-09-09T12:50:31;3.10;;;1.85;;
66478;SDS011;53294;47.912;13.526;2022-09-09T12:53:06;3.78;;;2.17;;
66478;SDS011;53294;47.912;13.526;2022-09-09T12:55:37;4.95;;;2.63;;
66478;SDS011;53294;47.912;13.526;2022-09-09T12:58:05;6.03;;;2.40;;
66478;SDS011;53294;47.912;13.526;2022-09-09T13:00:33;3.70;;;1.90;;
66478;SDS011;53294;47.912;13.526;2022-09-09T13:03:01;3.55;;;2.22;;
66478;SDS011;53294;47.912;13.526;2022-09-09T13:05:37;5.28;;;2.67;;
66478;SDS011;53294;47.912;13.526;2022-09-09T13:08:05;4.18;;;2.40;;
66478;SDS011;53294;47.912;13.526;2022-09-09T13:13:23;3.05;;;2.03;;
66478;SDS011;53294;47.912;13.526;2022-09-09T13:15:54;4.07;;;2.13;;
66478;SDS011;53294;47.912;13.526;2022-09-09T13:18:24;3.40;;;1.95;;
66478;SDS011;53294;47.912;13.526;2022-09-09T13:20:54;3.10;;;1.80;;
66478;SDS011;53294;47.912;13.526;2022-09-09T13:23:26;3.00;;;1.88;;
66478;SDS011;53294;47.912;13.526;2022-09-09T13:25:57;3.83;;;2.00;;
66478;SDS011;53294;47.912;13.526;2022-09-09T13:28:26;2.42;;;1.60;;
66478;SDS011;53294;47.912;13.526;2022-09-09T13:33:30;2.60;;;1.95;;
66478;SDS011;53294;47.912;13.526;2022-09-09T13:36:01;3.47;;;1.73;;
66478;SDS011;53294;47.912;13.526;2022-09-09T13:38:33;2.75;;;1.83;;
66478;SDS011;53294;47.912;13.526;2022-09-09T13:41:05;2.45;;;1.50;;
66478;SDS011;53294;47.912;13.526;2022-09-09T13:43:38;3.80;;;1.48;;
66478;SDS011;53294;47.912;13.526;2022-09-09T13:48:55;3.08;;;1.45;;
66478;SDS011;53294;47.912;13.526;2022-09-09T13:51:33;3.38;;;1.50;;
66478;SDS011;53294;47.912;13.526;2022-09-09T13:54:06;2.47;;;1.38;;
66478;SDS011;53294;47.912;13.526;2022-09-09T13:56:36;3.40;;;1.40;;
66478;SDS011;53294;47.912;13.526;2022-09-09T13:59:05;2.90;;;1.85;;
66478;SDS011;53294;47.912;13.526;2022-09-09T14:01:36;4.85;;;1.38;;
66478;SDS011;53294;47.912;13.526;2022-09-09T14:04:03;2.65;;;1.50;;
66478;SDS011;53294;47.912;13.526;2022-09-09T14:06:32;3.25;;;1.70;;
66478;SDS011;53294;47.912;13.526;2022-09-09T14:09:12;3.25;;;1.42;;
66478;SDS011;53294;47.912;13.526;2022-09-09T14:11:42;3.13;;;1.67;;
66478;SDS011;53294;47.912;13.526;2022-09-09T14:14:09;2.63;;;1.77;;
66478;SDS011;53294;47.912;13.526;2022-09-09T14:16:35;3.55;;;1.42;;
66478;SDS011;53294;47.912;13.526;2022-09-09T14:19:03;2.38;;;1.40;;
66478;SDS011;53294;47.912;13.526;2022-09-09T14:21:30;2.63;;;1.38;;
66478;SDS011;53294;47.912;13.526;2022-09-09T14:23:57;3.28;;;1.38;;
66478;SDS011;53294;47.912;13.526;2022-09-09T14:26:24;2.92;;;1.45;;
66478;SDS011;53294;47.912;13.526;2022-09-09T14:28:52;3.72;;;1.40;;
66478;SDS011;53294;47.912;13.526;2022-09-09T14:31:22;2.17;;;1.30;;
66478;SDS011;53294;47.912;13.526;2022-09-09T14:33:49;2.72;;;1.40;;
66478;SDS011;53294;47.912;13.526;2022-09-09T14:36:17;2.85;;;1.60;;
66478;SDS011;53294;47.912;13.526;2022-09-09T14:38:43;3.88;;;1.60;;
66478;SDS011;53294;47.912;13.526;2022-09-09T14:41:11;2.63;;;1.45;;
66478;SDS011;53294;47.912;13.526;2022-09-09T14:43:39;2.78;;;1.40;;
66478;SDS011;53294;47.912;13.526;2022-09-09T14:46:11;2.60;;;1.65;;
66478;SDS011;53294;47.912;13.526;2022-09-09T14:48:42;4.07;;;1.45;;
66478;SDS011;53294;47.912;13.526;2022-09-09T14:53:36;1.75;;;1.40;;
66478;SDS011;53294;47.912;13.526;2022-09-09T14:56:11;3.08;;;1.50;;
66478;SDS011;53294;47.912;13.526;2022-09-09T14:58:42;2.55;;;1.30;;
66478;SDS011;53294;47.912;13.526;2022-09-09T15:01:14;3.53;;;1.50;;
66478;SDS011;53294;47.912;13.526;2022-09-09T15:03:43;2.58;;;1.60;;
66478;SDS011;53294;47.912;13.526;2022-09-09T15:06:14;3.23;;;1.50;;
66478;SDS011;53294;47.912;13.526;2022-09-09T15:08:42;2.30;;;1.55;;
66478;SDS011;53294;47.912;13.526;2022-09-09T15:11:11;5.15;;;2.03;;
66478;SDS011;53294;47.912;13.526;2022-09-09T15:13:39;3.63;;;1.50;;
66478;SDS011;53294;47.912;13.526;2022-09-09T15:16:11;2.60;;;1.55;;
66478;SDS011;53294;47.912;13.526;2022-09-09T15:18:40;3.45;;;1.52;;
66478;SDS011;53294;47.912;13.526;2022-09-09T15:21:09;3.20;;;1.70;;
66478;SDS011;53294;47.912;13.526;2022-09-09T15:23:40;3.75;;;1.98;;
66478;SDS011;53294;47.912;13.526;2022-09-09T15:26:07;4.43;;;2.03;;
66478;SDS011;53294;47.912;13.526;2022-09-09T15:28:36;4.15;;;2.03;;
66478;SDS011;53294;47.912;13.526;2022-09-09T15:31:05;3.22;;;1.60;;
66478;SDS011;53294;47.912;13.526;2022-09-09T15:33:46;4.40;;;1.58;;
66478;SDS011;53294;47.912;13.526;2022-09-09T15:36:36;2.75;;;1.50;;
66478;SDS011;53294;47.912;13.526;2022-09-09T15:39:04;1.92;;;1.20;;
66478;SDS011;53294;47.912;13.526;2022-09-09T15:41:32;2.08;;;1.55;;
66478;SDS011;53294;47.912;13.526;2022-09-09T15:43:59;2.50;;;1.50;;
66478;SDS011;53294;47.912;13.526;2022-09-09T15:46:33;4.22;;;1.50;;
66478;SDS011;53294;47.912;13.526;2022-09-09T15:49:08;3.53;;;1.67;;
66478;SDS011;53294;47.912;13.526;2022-09-09T15:51:37;3.08;;;1.60;;
66478;SDS011;53294;47.912;13.526;2022-09-09T15:54:17;3.03;;;1.20;;
66478;SDS011;53294;47.912;13.526;2022-09-09T15:56:45;4.10;;;1.45;;
66478;SDS011;53294;47.912;13.526;2022-09-09T15:59:14;2.08;;;1.10;;
66478;SDS011;53294;47.912;13.526;2022-09-09T16:01:41;2.05;;;1.00;;
66478;SDS011;53294;47.912;13.526;2022-09-09T16:04:09;1.90;;;1.20;;
66478;SDS011;53294;47.912;13.526;2022-09-09T16:06:36;1.75;;;1.20;;
66478;SDS011;53294;47.912;13.526;2022-09-09T16:09:04;1.45;;;0.80;;
66478;SDS011;53294;47.912;13.526;2022-09-09T16:11:35;2.47;;;1.08;;
66478;SDS011;53294;47.912;13.526;2022-09-09T16:14:03;2.10;;;1.10;;
66478;SDS011;53294;47.912;13.526;2022-09-09T16:16:31;1.95;;;0.90;;
66478;SDS011;53294;47.912;13.526;2022-09-09T16:19:08;2.55;;;1.17;;
66478;SDS011;53294;47.912;13.526;2022-09-09T16:21:44;1.52;;;1.10;;
66478;SDS011;53294;47.912;13.526;2022-09-09T16:24:13;4.03;;;1.42;;
66478;SDS011;53294;47.912;13.526;2022-09-09T16:26:43;2.10;;;1.25;;
66478;SDS011;53294;47.912;13.526;2022-09-09T16:29:13;1.55;;;1.08;;
66478;SDS011;53294;47.912;13.526;2022-09-09T16:31:41;2.03;;;1.10;;
66478;SDS011;53294;47.912;13.526;2022-09-09T16:34:08;2.03;;;1.20;;
66478;SDS011;53294;47.912;13.526;2022-09-09T16:36:36;3.97;;;1.35;;
66478;SDS011;53294;47.912;13.526;2022-09-09T16:39:06;3.35;;;2.30;;
66478;SDS011;53294;47.912;13.526;2022-09-09T16:41:38;8.38;;;6.13;;
66478;SDS011;53294;47.912;13.526;2022-09-09T16:44:07;6.00;;;3.90;;
66478;SDS011;53294;47.912;13.526;2022-09-09T16:46:38;6.20;;;3.55;;
66478;SDS011;53294;47.912;13.526;2022-09-09T16:49:09;2.88;;;1.58;;
66478;SDS011;53294;47.912;13.526;2022-09-09T16:51:38;1.60;;;1.20;;
66478;SDS011;53294;47.912;13.526;2022-09-09T16:54:13;2.13;;;1.25;;
66478;SDS011;53294;47.912;13.526;2022-09-09T16:56:42;2.38;;;1.42;;
66478;SDS011;53294;47.912;13.526;2022-09-09T16:59:12;2.03;;;1.20;;